Oxford, KS (67119)

10:59 AM CDT on August 29, 2015 (GMT -0500)
Randy's Backyard | | Change Station
CLOSE
Current Station
Personal Weather Station
Location: Winfield, KS
Elevation: 1138 ft
Nearby Weather Stations

Elev 1138 ft 37.24 °N, 97.00 °W | Updated 8 seconds ago

Clear
Clear
80.6 °F
Feels Like 82 °F
N
0.4
Wind Variable Wind from NNE
Gusts 2.5 mph

Today
High -- | Low -- °F
--% Chance of Precip.
Yesterday
High -- | Low -- °F
Precip. -- in
6:56 AM 8:02 PM
Full, 100% visible
Pressure 30.03 in
Visibility 10.0 miles
Clouds Scattered Clouds 1900 ft
Heat Index 82 °F
Dew Point 65 °F
Humidity 58%
Rainfall 0.00 in
Snow Depth Not available.
UV 3 out of 12
Pollen 10.60 out of 12
Air Quality Not available.
Flu Activity Not available.
METAR KIAB 291458Z AUTO 36008KT 340V160 10SM SCT019 22/16 A3005 RMK AO2 SLP168 P0001 60001 T02200161 52013 $
Pressure 30.03 in
Visibility 10.0 miles
Clouds Scattered Clouds 1900 ft
Heat Index 82 °F
Dew Point 65 °F
Humidity 58%
Rainfall 0.00 in
Snow Depth Not available.
UV 3 out of 12
Pollen 10.60 out of 12
Air Quality Not available.
Flu Activity Not available.
METAR KIAB 291458Z AUTO 36008KT 340V160 10SM SCT019 22/16 A3005 RMK AO2 SLP168 P0001 60001 T02200161 52013 $

10-Day Weather Forecast

×

Almanac

Astronomy

Aug. 29, 2015 Rise Set
Actual Time
Civil Twilight
Nautical Twilight
Astronomical Twilight
Moon
Length of Visible Light
Length of Day
Tomorrow will be .
, % of the Moon is Illuminated

Today's Extremes

State Highs State Lows

Community

WunderPhotos

Upload Photos

1,850,700 photos uploaded!

WunderBlogs® & News

Nearby

Air Quality

  Air Quality AQ Index Pollutant
Not available.

Snow Depth

Station Depth Elevation

Earthquake Activity

City Distance Mag. Time & Date
Minimum magnitude displayed is 2.5.

Coastal Water Temperatures

Place Temperature

Stations

Nearby Weather Stations

Station Location Temp. Windchill Dew Point Humidity Wind Precip. Elev Updated Type